sensor_id;sensor_type;location;lat;lon;timestamp;temperature;humidity
56538;DHT22;42435;53.292;6.000;2023-08-12T00:00:10;20.60;79.50
56538;DHT22;42435;53.292;6.000;2023-08-12T00:02:41;20.50;79.60
56538;DHT22;42435;53.292;6.000;2023-08-12T00:05:07;20.60;79.60
56538;DHT22;42435;53.292;6.000;2023-08-12T00:07:34;20.60;79.50
56538;DHT22;42435;53.292;6.000;2023-08-12T00:10:01;20.60;79.60
56538;DHT22;42435;53.292;6.000;2023-08-12T00:12:28;20.60;79.60
56538;DHT22;42435;53.292;6.000;2023-08-12T00:14:54;20.60;79.70
56538;DHT22;42435;53.292;6.000;2023-08-12T00:17:20;20.60;79.70
56538;DHT22;42435;53.292;6.000;2023-08-12T00:19:46;20.60;79.80
56538;DHT22;42435;53.292;6.000;2023-08-12T00:22:12;20.60;79.80
56538;DHT22;42435;53.292;6.000;2023-08-12T00:24:38;20.60;79.90
56538;DHT22;42435;53.292;6.000;2023-08-12T00:27:05;20.50;79.90
56538;DHT22;42435;53.292;6.000;2023-08-12T00:29:32;20.50;79.90
56538;DHT22;42435;53.292;6.000;2023-08-12T00:31:57;20.50;79.90
56538;DHT22;42435;53.292;6.000;2023-08-12T00:34:23;20.50;79.90
56538;DHT22;42435;53.292;6.000;2023-08-12T00:36:48;20.50;79.90
56538;DHT22;42435;53.292;6.000;2023-08-12T00:39:14;20.50;80.10
56538;DHT22;42435;53.292;6.000;2023-08-12T00:41:40;20.50;80.10
56538;DHT22;42435;53.292;6.000;2023-08-12T00:44:05;20.50;80.20
56538;DHT22;42435;53.292;6.000;2023-08-12T00:46:31;20.50;80.30
56538;DHT22;42435;53.292;6.000;2023-08-12T00:48:57;20.60;80.30
56538;DHT22;42435;53.292;6.000;2023-08-12T00:51:22;20.50;80.40
56538;DHT22;42435;53.292;6.000;2023-08-12T00:53:48;20.60;80.40
56538;DHT22;42435;53.292;6.000;2023-08-12T00:56:15;20.50;80.40
56538;DHT22;42435;53.292;6.000;2023-08-12T00:58:41;20.60;80.40
56538;DHT22;42435;53.292;6.000;2023-08-12T01:01:08;20.60;80.30
56538;DHT22;42435;53.292;6.000;2023-08-12T01:03:34;20.60;80.40
56538;DHT22;42435;53.292;6.000;2023-08-12T01:06:00;20.60;80.40
56538;DHT22;42435;53.292;6.000;2023-08-12T01:08:31;20.60;80.30
56538;DHT22;42435;53.292;6.000;2023-08-12T01:11:14;20.60;80.40
56538;DHT22;42435;53.292;6.000;2023-08-12T01:13:50;20.60;80.40
56538;DHT22;42435;53.292;6.000;2023-08-12T01:16:19;20.70;80.30
56538;DHT22;42435;53.292;6.000;2023-08-12T01:18:47;20.70;80.30
56538;DHT22;42435;53.292;6.000;2023-08-12T01:21:16;20.70;80.20
56538;DHT22;42435;53.292;6.000;2023-08-12T01:23:43;20.70;80.20
56538;DHT22;42435;53.292;6.000;2023-08-12T01:26:10;20.60;80.20
56538;DHT22;42435;53.292;6.000;2023-08-12T01:28:38;20.60;80.10
56538;DHT22;42435;53.292;6.000;2023-08-12T01:31:15;20.60;80.10
56538;DHT22;42435;53.292;6.000;2023-08-12T01:33:58;20.60;80.20
56538;DHT22;42435;53.292;6.000;2023-08-12T01:36:28;20.50;80.40
56538;DHT22;42435;53.292;6.000;2023-08-12T01:38:55;20.50;80.40
56538;DHT22;42435;53.292;6.000;2023-08-12T01:41:23;20.50;80.40
56538;DHT22;42435;53.292;6.000;2023-08-12T01:43:49;20.50;80.50
56538;DHT22;42435;53.292;6.000;2023-08-12T01:46:14;20.50;80.40
56538;DHT22;42435;53.292;6.000;2023-08-12T01:48:40;20.50;80.40
56538;DHT22;42435;53.292;6.000;2023-08-12T01:51:05;20.50;80.40
56538;DHT22;42435;53.292;6.000;2023-08-12T01:53:31;20.40;80.40
56538;DHT22;42435;53.292;6.000;2023-08-12T01:55:57;20.40;80.40
56538;DHT22;42435;53.292;6.000;2023-08-12T01:58:22;20.40;80.50
56538;DHT22;42435;53.292;6.000;2023-08-12T02:00:48;20.40;80.60
56538;DHT22;42435;53.292;6.000;2023-08-12T02:03:13;20.40;80.70
56538;DHT22;42435;53.292;6.000;2023-08-12T02:05:39;20.20;80.70
56538;DHT22;42435;53.292;6.000;2023-08-12T02:08:06;20.20;80.80
56538;DHT22;42435;53.292;6.000;2023-08-12T02:10:32;20.20;81.00
56538;DHT22;42435;53.292;6.000;2023-08-12T02:12:57;20.20;81.00
56538;DHT22;42435;53.292;6.000;2023-08-12T02:15:23;20.30;81.10
56538;DHT22;42435;53.292;6.000;2023-08-12T02:17:49;20.30;81.10
56538;DHT22;42435;53.292;6.000;2023-08-12T02:20:14;20.20;81.10
56538;DHT22;42435;53.292;6.000;2023-08-12T02:22:40;20.30;81.10
56538;DHT22;42435;53.292;6.000;2023-08-12T02:25:06;20.30;81.10
56538;DHT22;42435;53.292;6.000;2023-08-12T02:27:32;20.30;81.10
56538;DHT22;42435;53.292;6.000;2023-08-12T02:29:57;20.30;81.20
56538;DHT22;42435;53.292;6.000;2023-08-12T02:32:23;20.30;81.20
56538;DHT22;42435;53.292;6.000;2023-08-12T02:34:48;20.30;81.20
56538;DHT22;42435;53.292;6.000;2023-08-12T02:37:14;20.40;81.20
56538;DHT22;42435;53.292;6.000;2023-08-12T02:39:39;20.30;81.20
56538;DHT22;42435;53.292;6.000;2023-08-12T02:42:05;20.40;81.20
56538;DHT22;42435;53.292;6.000;2023-08-12T02:44:31;20.40;81.20
56538;DHT22;42435;53.292;6.000;2023-08-12T02:46:56;20.40;81.20
56538;DHT22;42435;53.292;6.000;2023-08-12T02:49:22;20.40;81.20
56538;DHT22;42435;53.292;6.000;2023-08-12T02:51:47;20.40;81.20
56538;DHT22;42435;53.292;6.000;2023-08-12T02:54:13;20.40;81.20
56538;DHT22;42435;53.292;6.000;2023-08-12T02:56:38;20.50;81.10
56538;DHT22;42435;53.292;6.000;2023-08-12T02:59:04;20.50;81.00
56538;DHT22;42435;53.292;6.000;2023-08-12T03:01:30;20.50;81.00
56538;DHT22;42435;53.292;6.000;2023-08-12T03:03:55;20.50;80.90
56538;DHT22;42435;53.292;6.000;2023-08-12T03:06:21;20.50;80.90
56538;DHT22;42435;53.292;6.000;2023-08-12T03:08:49;20.50;80.90
56538;DHT22;42435;53.292;6.000;2023-08-12T03:11:15;20.50;80.80
56538;DHT22;42435;53.292;6.000;2023-08-12T03:13:41;20.50;80.80
56538;DHT22;42435;53.292;6.000;2023-08-12T03:16:11;20.60;80.70
56538;DHT22;42435;53.292;6.000;2023-08-12T03:18:38;20.60;80.70
56538;DHT22;42435;53.292;6.000;2023-08-12T03:21:07;20.60;80.50
56538;DHT22;42435;53.292;6.000;2023-08-12T03:23:36;20.60;80.40
56538;DHT22;42435;53.292;6.000;2023-08-12T03:26:02;20.60;80.40
56538;DHT22;42435;53.292;6.000;2023-08-12T03:28:29;20.60;80.40
56538;DHT22;42435;53.292;6.000;2023-08-12T03:30:54;20.60;80.40
56538;DHT22;42435;53.292;6.000;2023-08-12T03:33:20;20.60;80.40
56538;DHT22;42435;53.292;6.000;2023-08-12T03:35:46;20.60;80.30
56538;DHT22;42435;53.292;6.000;2023-08-12T03:38:15;20.60;80.40
56538;DHT22;42435;53.292;6.000;2023-08-12T03:40:41;20.60;80.40
56538;DHT22;42435;53.292;6.000;2023-08-12T03:43:07;20.60;80.40
56538;DHT22;42435;53.292;6.000;2023-08-12T03:45:42;20.70;80.40
56538;DHT22;42435;53.292;6.000;2023-08-12T03:48:08;20.70;80.40
56538;DHT22;42435;53.292;6.000;2023-08-12T03:50:35;20.70;80.40
56538;DHT22;42435;53.292;6.000;2023-08-12T03:53:01;20.70;80.40
56538;DHT22;42435;53.292;6.000;2023-08-12T03:55:29;20.60;80.40
56538;DHT22;42435;53.292;6.000;2023-08-12T03:57:55;20.70;80.40
56538;DHT22;42435;53.292;6.000;2023-08-12T04:00:20;20.60;80.50
56538;DHT22;42435;53.292;6.000;2023-08-12T04:02:46;20.70;80.50
56538;DHT22;42435;53.292;6.000;2023-08-12T04:05:12;20.70;80.50
56538;DHT22;42435;53.292;6.000;2023-08-12T04:07:37;20.70;80.50
56538;DHT22;42435;53.292;6.000;2023-08-12T04:10:03;20.70;80.50
56538;DHT22;42435;53.292;6.000;2023-08-12T04:12:28;20.70;80.50
56538;DHT22;42435;53.292;6.000;2023-08-12T04:14:54;20.70;80.50
56538;DHT22;42435;53.292;6.000;2023-08-12T04:17:19;20.70;80.50
56538;DHT22;42435;53.292;6.000;2023-08-12T04:19:45;20.70;80.50
56538;DHT22;42435;53.292;6.000;2023-08-12T04:22:10;20.70;80.60
56538;DHT22;42435;53.292;6.000;2023-08-12T04:24:36;20.70;80.60
56538;DHT22;42435;53.292;6.000;2023-08-12T04:27:02;20.70;80.70
56538;DHT22;42435;53.292;6.000;2023-08-12T04:29:27;20.70;80.80
56538;DHT22;42435;53.292;6.000;2023-08-12T04:31:53;20.70;80.80
56538;DHT22;42435;53.292;6.000;2023-08-12T04:34:19;20.70;80.80
56538;DHT22;42435;53.292;6.000;2023-08-12T04:36:44;20.80;80.70
56538;DHT22;42435;53.292;6.000;2023-08-12T04:39:10;20.80;80.70
56538;DHT22;42435;53.292;6.000;2023-08-12T04:41:35;20.80;80.60
56538;DHT22;42435;53.292;6.000;2023-08-12T04:44:04;20.80;80.60
56538;DHT22;42435;53.292;6.000;2023-08-12T04:46:30;20.80;80.60
56538;DHT22;42435;53.292;6.000;2023-08-12T04:48:55;20.80;80.60
56538;DHT22;42435;53.292;6.000;2023-08-12T04:51:21;20.80;80.60
56538;DHT22;42435;53.292;6.000;2023-08-12T04:53:47;20.80;80.60
56538;DHT22;42435;53.292;6.000;2023-08-12T04:56:12;20.80;80.60
56538;DHT22;42435;53.292;6.000;2023-08-12T04:58:38;20.90;80.50
56538;DHT22;42435;53.292;6.000;2023-08-12T05:01:04;20.90;80.50
56538;DHT22;42435;53.292;6.000;2023-08-12T05:03:29;20.90;80.50
56538;DHT22;42435;53.292;6.000;2023-08-12T05:05:55;20.90;80.50
56538;DHT22;42435;53.292;6.000;2023-08-12T05:08:21;20.90;80.50
56538;DHT22;42435;53.292;6.000;2023-08-12T05:10:50;21.00;80.50
56538;DHT22;42435;53.292;6.000;2023-08-12T05:13:16;21.00;80.50
56538;DHT22;42435;53.292;6.000;2023-08-12T05:15:45;21.10;80.40
56538;DHT22;42435;53.292;6.000;2023-08-12T05:18:12;21.10;80.30
56538;DHT22;42435;53.292;6.000;2023-08-12T05:20:39;21.20;80.30
56538;DHT22;42435;53.292;6.000;2023-08-12T05:23:06;21.30;80.10
56538;DHT22;42435;53.292;6.000;2023-08-12T05:25:31;21.30;80.00
56538;DHT22;42435;53.292;6.000;2023-08-12T05:27:57;21.40;79.90
56538;DHT22;42435;53.292;6.000;2023-08-12T05:30:22;21.40;79.80
56538;DHT22;42435;53.292;6.000;2023-08-12T05:32:48;21.50;79.70
56538;DHT22;42435;53.292;6.000;2023-08-12T05:35:13;21.50;79.50
56538;DHT22;42435;53.292;6.000;2023-08-12T05:37:39;21.60;79.40
56538;DHT22;42435;53.292;6.000;2023-08-12T05:40:05;21.60;79.30
56538;DHT22;42435;53.292;6.000;2023-08-12T05:42:34;21.70;79.10
56538;DHT22;42435;53.292;6.000;2023-08-12T05:44:59;21.70;79.00
56538;DHT22;42435;53.292;6.000;2023-08-12T05:47:25;21.80;78.90
56538;DHT22;42435;53.292;6.000;2023-08-12T05:49:50;21.80;78.80
56538;DHT22;42435;53.292;6.000;2023-08-12T05:52:16;21.90;78.70
56538;DHT22;42435;53.292;6.000;2023-08-12T05:54:42;21.90;78.60
56538;DHT22;42435;53.292;6.000;2023-08-12T05:57:07;21.90;78.50
56538;DHT22;42435;53.292;6.000;2023-08-12T05:59:33;21.90;78.50
56538;DHT22;42435;53.292;6.000;2023-08-12T06:01:58;21.90;78.40
56538;DHT22;42435;53.292;6.000;2023-08-12T06:04:24;21.90;78.40
56538;DHT22;42435;53.292;6.000;2023-08-12T06:06:50;21.90;78.40
56538;DHT22;42435;53.292;6.000;2023-08-12T06:09:15;21.90;78.40
56538;DHT22;42435;53.292;6.000;2023-08-12T06:11:41;21.90;78.40
56538;DHT22;42435;53.292;6.000;2023-08-12T06:14:07;21.90;78.30
56538;DHT22;42435;53.292;6.000;2023-08-12T06:16:32;22.00;78.40
56538;DHT22;42435;53.292;6.000;2023-08-12T06:18:59;21.90;78.30
56538;DHT22;42435;53.292;6.000;2023-08-12T06:21:25;22.00;78.40
56538;DHT22;42435;53.292;6.000;2023-08-12T06:23:52;22.00;78.50
56538;DHT22;42435;53.292;6.000;2023-08-12T06:26:18;22.00;78.50
56538;DHT22;42435;53.292;6.000;2023-08-12T06:28:43;22.00;78.50
56538;DHT22;42435;53.292;6.000;2023-08-12T06:31:09;22.00;78.50
56538;DHT22;42435;53.292;6.000;2023-08-12T06:33:34;22.00;78.50
56538;DHT22;42435;53.292;6.000;2023-08-12T06:36:00;22.00;78.50
56538;DHT22;42435;53.292;6.000;2023-08-12T06:38:25;22.00;78.50
56538;DHT22;42435;53.292;6.000;2023-08-12T06:40:51;22.00;78.50
56538;DHT22;42435;53.292;6.000;2023-08-12T06:43:16;22.00;78.60
56538;DHT22;42435;53.292;6.000;2023-08-12T06:45:42;22.10;78.60
56538;DHT22;42435;53.292;6.000;2023-08-12T06:48:08;22.10;78.50
56538;DHT22;42435;53.292;6.000;2023-08-12T06:50:34;22.10;78.50
56538;DHT22;42435;53.292;6.000;2023-08-12T06:52:59;22.10;78.50
56538;DHT22;42435;53.292;6.000;2023-08-12T06:55:25;22.10;78.50
56538;DHT22;42435;53.292;6.000;2023-08-12T06:57:50;22.10;78.40
56538;DHT22;42435;53.292;6.000;2023-08-12T07:00:16;22.20;78.40
56538;DHT22;42435;53.292;6.000;2023-08-12T07:02:41;22.10;78.40
56538;DHT22;42435;53.292;6.000;2023-08-12T07:05:08;22.10;78.40
56538;DHT22;42435;53.292;6.000;2023-08-12T07:07:34;22.20;78.50
56538;DHT22;42435;53.292;6.000;2023-08-12T07:10:00;22.20;78.60
56538;DHT22;42435;53.292;6.000;2023-08-12T07:12:25;22.20;78.60
56538;DHT22;42435;53.292;6.000;2023-08-12T07:14:54;22.20;78.60
56538;DHT22;42435;53.292;6.000;2023-08-12T07:17:19;22.20;78.60
56538;DHT22;42435;53.292;6.000;2023-08-12T07:19:45;22.30;78.60
56538;DHT22;42435;53.292;6.000;2023-08-12T07:22:10;22.40;78.50
56538;DHT22;42435;53.292;6.000;2023-08-12T07:24:36;22.40;78.40
56538;DHT22;42435;53.292;6.000;2023-08-12T07:27:01;22.40;78.30
56538;DHT22;42435;53.292;6.000;2023-08-12T07:29:27;22.40;78.30
56538;DHT22;42435;53.292;6.000;2023-08-12T07:31:53;22.40;78.30
56538;DHT22;42435;53.292;6.000;2023-08-12T07:34:18;22.40;78.30
56538;DHT22;42435;53.292;6.000;2023-08-12T07:36:44;22.40;78.30
56538;DHT22;42435;53.292;6.000;2023-08-12T07:39:10;22.40;78.30
56538;DHT22;42435;53.292;6.000;2023-08-12T07:44:20;22.50;78.40
56538;DHT22;42435;53.292;6.000;2023-08-12T07:46:45;22.50;78.40
56538;DHT22;42435;53.292;6.000;2023-08-12T07:49:15;22.50;78.60
56538;DHT22;42435;53.292;6.000;2023-08-12T07:51:41;22.50;78.80
56538;DHT22;42435;53.292;6.000;2023-08-12T07:54:06;22.50;79.00
56538;DHT22;42435;53.292;6.000;2023-08-12T07:56:32;22.50;79.00
56538;DHT22;42435;53.292;6.000;2023-08-12T07:58:58;22.50;79.10
56538;DHT22;42435;53.292;6.000;2023-08-12T08:01:23;22.50;79.10
56538;DHT22;42435;53.292;6.000;2023-08-12T08:03:49;22.50;79.20
56538;DHT22;42435;53.292;6.000;2023-08-12T08:06:15;22.50;79.20
56538;DHT22;42435;53.292;6.000;2023-08-12T08:08:40;22.50;79.30
56538;DHT22;42435;53.292;6.000;2023-08-12T08:11:06;22.50;79.40
56538;DHT22;42435;53.292;6.000;2023-08-12T08:13:31;22.50;79.50
56538;DHT22;42435;53.292;6.000;2023-08-12T08:15:57;22.40;79.60
56538;DHT22;42435;53.292;6.000;2023-08-12T08:18:23;22.40;79.80
56538;DHT22;42435;53.292;6.000;2023-08-12T08:20:48;22.40;80.00
56538;DHT22;42435;53.292;6.000;2023-08-12T08:23:14;22.40;80.00
56538;DHT22;42435;53.292;6.000;2023-08-12T08:25:39;22.40;80.00
56538;DHT22;42435;53.292;6.000;2023-08-12T08:28:05;22.40;80.10
56538;DHT22;42435;53.292;6.000;2023-08-12T08:30:31;22.40;80.20
56538;DHT22;42435;53.292;6.000;2023-08-12T08:32:56;22.40;80.30
56538;DHT22;42435;53.292;6.000;2023-08-12T08:35:22;22.40;80.50
56538;DHT22;42435;53.292;6.000;2023-08-12T08:37:47;22.30;80.60
56538;DHT22;42435;53.292;6.000;2023-08-12T08:40:13;22.30;80.60
56538;DHT22;42435;53.292;6.000;2023-08-12T08:42:39;22.30;80.70
56538;DHT22;42435;53.292;6.000;2023-08-12T08:45:12;22.20;80.80
56538;DHT22;42435;53.292;6.000;2023-08-12T08:47:37;22.20;81.00
56538;DHT22;42435;53.292;6.000;2023-08-12T08:50:04;22.20;81.00
56538;DHT22;42435;53.292;6.000;2023-08-12T08:52:31;22.20;81.10
56538;DHT22;42435;53.292;6.000;2023-08-12T08:55:00;22.30;81.20
56538;DHT22;42435;53.292;6.000;2023-08-12T08:57:27;22.40;81.30
56538;DHT22;42435;53.292;6.000;2023-08-12T08:59:54;22.40;81.30
56538;DHT22;42435;53.292;6.000;2023-08-12T09:02:23;22.40;81.30
56538;DHT22;42435;53.292;6.000;2023-08-12T09:04:49;22.40;81.30
56538;DHT22;42435;53.292;6.000;2023-08-12T09:07:15;22.50;81.20
56538;DHT22;42435;53.292;6.000;2023-08-12T09:09:45;22.50;81.10
56538;DHT22;42435;53.292;6.000;2023-08-12T09:12:15;22.50;80.90
56538;DHT22;42435;53.292;6.000;2023-08-12T09:14:44;22.50;80.80
56538;DHT22;42435;53.292;6.000;2023-08-12T09:17:10;22.50;80.80
56538;DHT22;42435;53.292;6.000;2023-08-12T09:19:36;22.50;80.70
56538;DHT22;42435;53.292;6.000;2023-08-12T09:22:05;22.50;80.70
56538;DHT22;42435;53.292;6.000;2023-08-12T09:24:31;22.50;80.70
56538;DHT22;42435;53.292;6.000;2023-08-12T09:26:56;22.50;80.70
56538;DHT22;42435;53.292;6.000;2023-08-12T09:29:23;22.50;80.70
56538;DHT22;42435;53.292;6.000;2023-08-12T09:31:50;22.40;80.90
56538;DHT22;42435;53.292;6.000;2023-08-12T09:34:17;22.40;80.90
56538;DHT22;42435;53.292;6.000;2023-08-12T09:36:43;22.40;81.00
56538;DHT22;42435;53.292;6.000;2023-08-12T09:39:09;22.40;81.20
56538;DHT22;42435;53.292;6.000;2023-08-12T09:41:35;22.40;81.30
56538;DHT22;42435;53.292;6.000;2023-08-12T09:44:02;22.40;81.40
56538;DHT22;42435;53.292;6.000;2023-08-12T09:46:28;22.30;81.50
56538;DHT22;42435;53.292;6.000;2023-08-12T09:48:54;22.30;81.50
56538;DHT22;42435;53.292;6.000;2023-08-12T09:51:20;22.20;81.40
56538;DHT22;42435;53.292;6.000;2023-08-12T09:53:50;22.20;81.40
56538;DHT22;42435;53.292;6.000;2023-08-12T09:56:22;22.20;81.40
56538;DHT22;42435;53.292;6.000;2023-08-12T09:58:49;22.10;81.50
56538;DHT22;42435;53.292;6.000;2023-08-12T10:01:18;22.10;81.60
56538;DHT22;42435;53.292;6.000;2023-08-12T10:03:48;22.00;81.70
56538;DHT22;42435;53.292;6.000;2023-08-12T10:06:15;22.00;81.70
56538;DHT22;42435;53.292;6.000;2023-08-12T10:08:41;21.90;81.80
56538;DHT22;42435;53.292;6.000;2023-08-12T10:11:07;21.90;82.10
56538;DHT22;42435;53.292;6.000;2023-08-12T10:13:34;21.90;82.40
56538;DHT22;42435;53.292;6.000;2023-08-12T10:16:00;21.90;82.50
56538;DHT22;42435;53.292;6.000;2023-08-12T10:18:27;21.90;82.60
56538;DHT22;42435;53.292;6.000;2023-08-12T10:20:54;22.00;82.50
56538;DHT22;42435;53.292;6.000;2023-08-12T10:23:24;22.00;82.50
56538;DHT22;42435;53.292;6.000;2023-08-12T10:25:54;22.10;82.50
56538;DHT22;42435;53.292;6.000;2023-08-12T10:28:20;22.10;81.90
56538;DHT22;42435;53.292;6.000;2023-08-12T10:30:46;22.00;80.50
56538;DHT22;42435;53.292;6.000;2023-08-12T10:33:14;21.80;79.40
56538;DHT22;42435;53.292;6.000;2023-08-12T10:35:47;21.60;78.40
56538;DHT22;42435;53.292;6.000;2023-08-12T10:38:20;21.50;78.10
56538;DHT22;42435;53.292;6.000;2023-08-12T10:40:50;21.20;78.40
56538;DHT22;42435;53.292;6.000;2023-08-12T10:43:16;21.10;78.30
56538;DHT22;42435;53.292;6.000;2023-08-12T10:46:03;20.90;78.50
56538;DHT22;42435;53.292;6.000;2023-08-12T10:48:28;20.80;78.80
56538;DHT22;42435;53.292;6.000;2023-08-12T10:50:56;20.70;78.80
56538;DHT22;42435;53.292;6.000;2023-08-12T10:53:32;20.60;78.70
56538;DHT22;42435;53.292;6.000;2023-08-12T10:56:02;20.50;78.40
56538;DHT22;42435;53.292;6.000;2023-08-12T10:58:44;20.50;78.50
56538;DHT22;42435;53.292;6.000;2023-08-12T11:01:16;20.50;78.60
56538;DHT22;42435;53.292;6.000;2023-08-12T11:03:43;20.40;78.70
56538;DHT22;42435;53.292;6.000;2023-08-12T11:06:11;20.40;78.80
56538;DHT22;42435;53.292;6.000;2023-08-12T11:08:46;20.50;78.90
56538;DHT22;42435;53.292;6.000;2023-08-12T11:11:24;20.50;79.30
56538;DHT22;42435;53.292;6.000;2023-08-12T11:13:56;20.60;79.30
56538;DHT22;42435;53.292;6.000;2023-08-12T11:16:34;20.70;79.30
56538;DHT22;42435;53.292;6.000;2023-08-12T11:19:00;20.70;79.30
56538;DHT22;42435;53.292;6.000;2023-08-12T11:21:26;20.70;79.30
56538;DHT22;42435;53.292;6.000;2023-08-12T11:23:55;20.70;79.40
56538;DHT22;42435;53.292;6.000;2023-08-12T11:26:24;20.60;79.00
56538;DHT22;42435;53.292;6.000;2023-08-12T11:28:50;20.50;78.20
56538;DHT22;42435;53.292;6.000;2023-08-12T11:31:16;20.40;78.40
56538;DHT22;42435;53.292;6.000;2023-08-12T11:33:43;20.30;78.70
56538;DHT22;42435;53.292;6.000;2023-08-12T11:36:08;20.20;78.80
56538;DHT22;42435;53.292;6.000;2023-08-12T11:38:34;20.20;78.70
56538;DHT22;42435;53.292;6.000;2023-08-12T11:41:03;20.20;78.80
56538;DHT22;42435;53.292;6.000;2023-08-12T11:43:29;20.20;78.80
56538;DHT22;42435;53.292;6.000;2023-08-12T11:45:59;20.20;79.00
56538;DHT22;42435;53.292;6.000;2023-08-12T11:48:27;20.30;79.20
56538;DHT22;42435;53.292;6.000;2023-08-12T11:50:53;20.30;79.10
56538;DHT22;42435;53.292;6.000;2023-08-12T11:53:19;20.40;79.00
56538;DHT22;42435;53.292;6.000;2023-08-12T11:55:45;20.30;79.00
56538;DHT22;42435;53.292;6.000;2023-08-12T11:58:13;20.40;79.10
56538;DHT22;42435;53.292;6.000;2023-08-12T12:00:38;20.40;79.20
56538;DHT22;42435;53.292;6.000;2023-08-12T12:03:04;20.40;79.30
56538;DHT22;42435;53.292;6.000;2023-08-12T12:05:31;20.40;79.50
56538;DHT22;42435;53.292;6.000;2023-08-12T12:07:58;20.40;79.70
56538;DHT22;42435;53.292;6.000;2023-08-12T12:10:32;20.50;80.00
56538;DHT22;42435;53.292;6.000;2023-08-12T12:12:59;20.50;80.60
56538;DHT22;42435;53.292;6.000;2023-08-12T12:15:25;20.70;80.50
56538;DHT22;42435;53.292;6.000;2023-08-12T12:17:51;20.90;80.70
56538;DHT22;42435;53.292;6.000;2023-08-12T12:20:17;21.00;80.70
56538;DHT22;42435;53.292;6.000;2023-08-12T12:22:44;21.10;80.20
56538;DHT22;42435;53.292;6.000;2023-08-12T12:25:12;21.30;79.30
56538;DHT22;42435;53.292;6.000;2023-08-12T12:27:38;21.40;78.50
56538;DHT22;42435;53.292;6.000;2023-08-12T12:30:07;21.50;78.20
56538;DHT22;42435;53.292;6.000;2023-08-12T12:32:32;21.70;77.80
56538;DHT22;42435;53.292;6.000;2023-08-12T12:34:58;21.90;77.30
56538;DHT22;42435;53.292;6.000;2023-08-12T12:37:24;22.00;76.80
56538;DHT22;42435;53.292;6.000;2023-08-12T12:39:49;22.30;76.30
56538;DHT22;42435;53.292;6.000;2023-08-12T12:42:15;22.50;76.00
56538;DHT22;42435;53.292;6.000;2023-08-12T12:44:40;22.70;75.80
56538;DHT22;42435;53.292;6.000;2023-08-12T12:47:06;22.90;75.60
56538;DHT22;42435;53.292;6.000;2023-08-12T12:49:31;23.10;75.30
56538;DHT22;42435;53.292;6.000;2023-08-12T12:51:57;23.40;74.40
56538;DHT22;42435;53.292;6.000;2023-08-12T12:54:23;23.70;73.40
56538;DHT22;42435;53.292;6.000;2023-08-12T12:56:48;23.90;72.50
56538;DHT22;42435;53.292;6.000;2023-08-12T12:59:14;24.10;72.10
56538;DHT22;42435;53.292;6.000;2023-08-12T13:01:43;24.20;71.30
56538;DHT22;42435;53.292;6.000;2023-08-12T13:04:08;24.40;70.90
56538;DHT22;42435;53.292;6.000;2023-08-12T13:06:35;24.50;69.60
56538;DHT22;42435;53.292;6.000;2023-08-12T13:09:00;24.80;69.00
56538;DHT22;42435;53.292;6.000;2023-08-12T13:11:27;24.90;68.00
56538;DHT22;42435;53.292;6.000;2023-08-12T13:13:53;24.90;67.10
56538;DHT22;42435;53.292;6.000;2023-08-12T13:16:19;25.10;66.40
56538;DHT22;42435;53.292;6.000;2023-08-12T13:18:45;25.30;65.00
56538;DHT22;42435;53.292;6.000;2023-08-12T13:21:11;25.30;64.10
56538;DHT22;42435;53.292;6.000;2023-08-12T13:23:39;25.40;63.00
56538;DHT22;42435;53.292;6.000;2023-08-12T13:26:05;25.40;62.40
56538;DHT22;42435;53.292;6.000;2023-08-12T13:28:30;25.40;63.00
56538;DHT22;42435;53.292;6.000;2023-08-12T13:30:56;25.40;62.70
56538;DHT22;42435;53.292;6.000;2023-08-12T13:33:22;25.40;62.10
56538;DHT22;42435;53.292;6.000;2023-08-12T13:35:48;25.50;61.80
56538;DHT22;42435;53.292;6.000;2023-08-12T13:38:13;25.50;62.50
56538;DHT22;42435;53.292;6.000;2023-08-12T13:40:42;25.60;62.00
56538;DHT22;42435;53.292;6.000;2023-08-12T13:43:07;25.70;61.00
56538;DHT22;42435;53.292;6.000;2023-08-12T13:45:33;25.70;59.00
56538;DHT22;42435;53.292;6.000;2023-08-12T13:47:59;25.80;58.80
56538;DHT22;42435;53.292;6.000;2023-08-12T13:50:24;25.80;58.60
56538;DHT22;42435;53.292;6.000;2023-08-12T13:52:50;25.80;58.20
56538;DHT22;42435;53.292;6.000;2023-08-12T13:55:17;25.90;56.80
56538;DHT22;42435;53.292;6.000;2023-08-12T13:57:45;25.90;56.20
56538;DHT22;42435;53.292;6.000;2023-08-12T14:00:11;26.00;55.80
56538;DHT22;42435;53.292;6.000;2023-08-12T14:02:39;26.00;55.00
56538;DHT22;42435;53.292;6.000;2023-08-12T14:05:05;26.00;55.10
56538;DHT22;42435;53.292;6.000;2023-08-12T14:07:31;26.00;55.40
56538;DHT22;42435;53.292;6.000;2023-08-12T14:09:57;26.00;55.90
56538;DHT22;42435;53.292;6.000;2023-08-12T14:12:23;26.20;56.90
56538;DHT22;42435;53.292;6.000;2023-08-12T14:14:49;26.30;56.60
56538;DHT22;42435;53.292;6.000;2023-08-12T14:17:14;26.30;55.70
56538;DHT22;42435;53.292;6.000;2023-08-12T14:19:43;26.40;55.40
56538;DHT22;42435;53.292;6.000;2023-08-12T14:22:08;26.50;54.60
56538;DHT22;42435;53.292;6.000;2023-08-12T14:24:34;26.50;54.10
56538;DHT22;42435;53.292;6.000;2023-08-12T14:26:59;26.50;53.10
56538;DHT22;42435;53.292;6.000;2023-08-12T14:29:25;26.50;53.30
56538;DHT22;42435;53.292;6.000;2023-08-12T14:31:53;26.60;52.40
56538;DHT22;42435;53.292;6.000;2023-08-12T14:34:23;26.50;52.70
56538;DHT22;42435;53.292;6.000;2023-08-12T14:36:49;26.50;54.00
56538;DHT22;42435;53.292;6.000;2023-08-12T14:39:15;26.50;54.00
56538;DHT22;42435;53.292;6.000;2023-08-12T14:41:40;26.50;53.10
56538;DHT22;42435;53.292;6.000;2023-08-12T14:44:06;26.50;53.40
56538;DHT22;42435;53.292;6.000;2023-08-12T14:46:31;26.60;52.80
56538;DHT22;42435;53.292;6.000;2023-08-12T14:48:57;26.50;52.30
56538;DHT22;42435;53.292;6.000;2023-08-12T14:51:23;26.40;52.10
56538;DHT22;42435;53.292;6.000;2023-08-12T14:53:48;26.30;52.40
56538;DHT22;42435;53.292;6.000;2023-08-12T14:56:14;26.20;52.70
56538;DHT22;42435;53.292;6.000;2023-08-12T14:58:40;26.20;53.10
56538;DHT22;42435;53.292;6.000;2023-08-12T15:01:06;26.20;53.00
56538;DHT22;42435;53.292;6.000;2023-08-12T15:03:32;26.20;52.90
56538;DHT22;42435;53.292;6.000;2023-08-12T15:06:02;26.20;53.10
56538;DHT22;42435;53.292;6.000;2023-08-12T15:08:29;26.20;52.80
56538;DHT22;42435;53.292;6.000;2023-08-12T15:10:55;26.20;52.50
56538;DHT22;42435;53.292;6.000;2023-08-12T15:13:20;26.20;51.90
56538;DHT22;42435;53.292;6.000;2023-08-12T15:15:50;26.10;51.70
56538;DHT22;42435;53.292;6.000;2023-08-12T15:18:18;26.20;52.40
56538;DHT22;42435;53.292;6.000;2023-08-12T15:20:44;26.20;52.50
56538;DHT22;42435;53.292;6.000;2023-08-12T15:23:10;26.20;52.80
56538;DHT22;42435;53.292;6.000;2023-08-12T15:25:36;26.20;53.30
56538;DHT22;42435;53.292;6.000;2023-08-12T15:28:01;26.20;53.90